Weather History for KTFP - January, 2013

Change the Weather History Date:

Thursday, January 24, 2013

  Actual Average Record
Temperature  
Mean Temperature 69 °F -  
Max Temperature 78 °F - - ()
Min Temperature 60 °F - - ()
Cooling Degree Days 4    
Growing Degree Days 19 (Base 50)    
Moisture  
Dew Point 63 °F    
Average Humidity 84    
Maximum Humidity 96    
Minimum Humidity 59    
Precipitation  
Precipitation 0.00 in - - ()
Sea Level Pressure  
Sea Level Pressure 30.22 in    
Wind  
Wind Speed 9 mph (South)    
Max Wind Speed 20 mph    
Max Gust Speed 24 mph    
Visibility 10 miles    
Events      
T = Trace of Precipitation, MM = Missing Value Source: NWS Daily Summary

Daily Weather History Graph

Daily Weather History Graph

Search for Another Location

Airport or City:

Trip Planner

Search our weather history database for the weather conditions in past years. The results will help you decide how hot, cold, wet, or windy it might be!

Date:

Astronomy

Jan. 24, 2013 Rise Set
Actual Time 7:19 AM CST 6:03 PM CST
Civil Twilight 6:54 AM CST 6:28 PM CST
Nautical Twilight 6:25 AM CST 6:56 PM CST
Astronomical Twilight 5:57 AM CST 7:24 PM CST
Moon 4:08 PM CST (1/24) 5:14 AM CST (1/24)
Length of Visible Light 11h 33m
Length of Day
10h 44m
Waxing Gibbous, 94% of the Moon is Illuminated
Jan 24
Waxing Gibbous
Jan 26
Full
Feb 3
Last Quarter
Feb 10
New
Feb 17
First Quarter

Hourly Weather History & Observations

Time (CST) Temp. Dew Point Humidity Pressure Visibility Wind Dir Wind Speed Gust Speed Precip Events Conditions
12:15 AM 64.4 °F 62.6 °F 94% 30.25 in 10.0 mi South 8.1 mph - N/A   Clear
12:35 AM 64.6 °F 62.6 °F 93% 30.25 in 10.0 mi South 5.8 mph - N/A   Clear
12:55 AM 64.4 °F 62.6 °F 94% 30.25 in 10.0 mi South 6.9 mph - N/A   Clear
1:15 AM 64.4 °F 62.6 °F 94% 30.25 in 10.0 mi South 8.1 mph - N/A   Clear
1:35 AM 64.0 °F 62.2 °F 94% 30.25 in 10.0 mi South 8.1 mph - N/A   Clear
1:55 AM 63.9 °F 62.1 °F 94% 30.25 in 10.0 mi North - - N/A   Clear
2:15 AM 63.7 °F 61.9 °F 94% 30.24 in 10.0 mi North - - N/A   Clear
2:35 AM 63.1 °F 61.3 °F 94% 30.24 in 10.0 mi SSW 5.8 mph - N/A   Clear
2:55 AM 62.8 °F 61.0 °F 94% 30.24 in 10.0 mi South 6.9 mph - N/A   Clear
3:15 AM 63.0 °F 61.5 °F 95% 30.24 in 10.0 mi South 6.9 mph - N/A   Clear
3:35 AM 62.8 °F 61.2 °F 94% 30.23 in 10.0 mi South 6.9 mph - N/A   Clear
3:55 AM 62.8 °F 61.2 °F 94% 30.23 in 10.0 mi North - - N/A   Clear
4:15 AM 62.6 °F 61.0 °F 94% 30.24 in 10.0 mi South 4.6 mph - N/A   Clear
4:35 AM 62.2 °F 60.6 °F 94% 30.24 in 7.0 mi Calm Calm - N/A   Clear
4:55 AM 61.7 °F 60.1 °F 94% 30.24 in 1.5 mi South 4.6 mph - N/A   Mist
5:15 AM 60.3 °F 59.0 °F 96% 30.23 in 3.0 mi South 6.9 mph - N/A   Clear
5:35 AM 61.3 °F 60.1 °F 96% 30.23 in 10.0 mi South 6.9 mph - N/A   Clear
5:55 AM 62.1 °F 60.8 °F 96% 30.23 in 10.0 mi South 6.9 mph - N/A   Clear
6:15 AM 61.5 °F 60.3 °F 96% 30.24 in 7.0 mi South 5.8 mph - N/A   Clear
6:35 AM 61.2 °F 60.1 °F 96% 30.24 in 10.0 mi South 6.9 mph - N/A   Clear
6:55 AM 62.4 °F 61.0 °F 95% 30.25 in 10.0 mi South 6.9 mph - N/A   Clear
7:15 AM 62.2 °F 61.0 °F 96% 30.25 in 7.0 mi South 5.8 mph - N/A   Clear
7:35 AM 61.9 °F 60.8 °F 96% 30.25 in 7.0 mi South 5.8 mph - N/A   Clear
7:55 AM 62.4 °F 61.0 °F 95% 30.25 in 7.0 mi South 5.8 mph - N/A   Clear
8:15 AM 63.1 °F 61.9 °F 96% 30.26 in 7.0 mi South 6.9 mph - N/A   Clear
8:35 AM 64.6 °F 63.1 °F 95% 30.27 in 10.0 mi South 6.9 mph - N/A   Clear
8:55 AM 66.6 °F 64.2 °F 92% 30.28 in 10.0 mi South 5.8 mph - N/A   Clear
9:15 AM 68.5 °F 64.9 °F 88% 30.28 in 10.0 mi SSW 6.9 mph - N/A   Clear
9:35 AM 70.3 °F 65.3 °F 84% 30.29 in 10.0 mi South 9.2 mph - N/A   Clear
9:55 AM 71.4 °F 65.1 °F 80% 30.30 in 10.0 mi SSW 11.5 mph - N/A   Clear
10:15 AM 72.3 °F 64.9 °F 78% 30.30 in 10.0 mi SSW 11.5 mph - N/A   Clear
10:35 AM 73.8 °F 64.6 °F 73% 30.30 in 10.0 mi SSW 13.8 mph 17.3 mph N/A   Clear
10:55 AM 74.5 °F 63.9 °F 69% 30.29 in 10.0 mi South 12.7 mph - N/A   Clear
11:15 AM 75.2 °F 63.7 °F 67% 30.29 in 10.0 mi South 12.7 mph - N/A   Clear
11:35 AM 76.3 °F 63.7 °F 65% 30.28 in 10.0 mi South 11.5 mph - N/A   Clear
11:55 AM 77.4 °F 63.5 °F 62% 30.27 in 10.0 mi South 12.7 mph - N/A   Clear
12:15 PM 77.5 °F 63.1 °F 61% 30.25 in 10.0 mi South 13.8 mph - N/A   Clear
12:35 PM 78.1 °F 63.0 °F 60% 30.24 in 10.0 mi South 15.0 mph 19.6 mph N/A   Clear
12:55 PM 78.3 °F 63.0 °F 59% 30.23 in 10.0 mi South 15.0 mph 19.6 mph N/A   Clear
1:15 PM 78.4 °F 63.1 °F 59% 30.21 in 10.0 mi South 16.1 mph 21.9 mph N/A   Clear
1:35 PM 78.1 °F 63.0 °F 60% 30.19 in 10.0 mi South 17.3 mph 20.7 mph N/A   Clear
1:55 PM 77.2 °F 63.1 °F 62% 30.18 in 10.0 mi South 18.4 mph 24.2 mph N/A   Clear
2:15 PM 76.8 °F 63.1 °F 63% 30.18 in 10.0 mi SSE 16.1 mph - N/A   Clear
2:35 PM 77.0 °F 63.9 °F 64% 30.17 in 10.0 mi South 13.8 mph - N/A   Clear
2:55 PM 77.2 °F 64.0 °F 64% 30.16 in 10.0 mi South 15.0 mph 21.9 mph N/A   Clear
3:15 PM 76.6 °F 64.0 °F 65% 30.15 in 10.0 mi SSE 17.3 mph 23.0 mph N/A   Clear
3:35 PM 75.4 °F 63.7 °F 67% 30.15 in 10.0 mi SSE 18.4 mph - N/A   Clear
3:55 PM 75.0 °F 63.9 °F 68% 30.15 in 10.0 mi SSE 17.3 mph 20.7 mph N/A   Clear
4:15 PM 74.5 °F 63.9 °F 69% 30.15 in 10.0 mi SSE 19.6 mph - N/A   Clear
4:35 PM 73.8 °F 64.0 °F 72% 30.15 in 10.0 mi SSE 17.3 mph 21.9 mph N/A   Clear
4:55 PM 73.0 °F 64.2 °F 74% 30.16 in 10.0 mi SSE 13.8 mph - N/A   Clear
5:15 PM 72.1 °F 64.4 °F 77% 30.16 in 10.0 mi SSE 13.8 mph - N/A   Clear
5:35 PM 70.9 °F 64.4 °F 80% 30.16 in 10.0 mi SSE 12.7 mph - N/A   Clear
5:55 PM 69.6 °F 64.4 °F 83% 30.16 in 10.0 mi SSE 11.5 mph - N/A   Clear
6:15 PM 68.4 °F 64.0 °F 86% 30.16 in 10.0 mi SSE 11.5 mph - N/A   Clear
6:35 PM 67.5 °F 64.2 °F 89% 30.16 in 10.0 mi North - - N/A   Clear
6:55 PM 67.1 °F 64.4 °F 91% 30.16 in 10.0 mi SSE 11.5 mph 17.3 mph N/A   Clear
7:35 PM 67.1 °F 64.6 °F 92% 30.17 in 10.0 mi SSE 10.4 mph - N/A   Clear
7:55 PM 67.1 °F 64.6 °F 92% 30.18 in 10.0 mi North - - N/A   Clear
8:15 PM 66.7 °F 64.6 °F 93% 30.18 in 10.0 mi SSE 11.5 mph - N/A   Clear
8:35 PM 66.6 °F 64.4 °F 93% 30.18 in 10.0 mi SSE 10.4 mph - N/A   Clear
8:55 PM 66.7 °F 64.6 °F 93% 30.18 in 10.0 mi SSE 12.7 mph - N/A   Clear
9:15 PM 67.1 °F 64.8 °F 92% 30.17 in 10.0 mi South 13.8 mph 19.6 mph N/A   Clear
9:35 PM 66.7 °F 64.6 °F 93% 30.18 in 10.0 mi South 13.8 mph 19.6 mph N/A   Clear
9:55 PM 66.6 °F 64.4 °F 93% 30.18 in 10.0 mi South 17.3 mph - N/A   Clear
10:15 PM 66.4 °F 64.4 °F 93% 30.18 in 10.0 mi South 15.0 mph - N/A   Clear
10:35 PM 66.4 °F 64.4 °F 93% 30.18 in 10.0 mi South 15.0 mph - N/A   Clear
10:55 PM 66.6 °F 64.4 °F 93% 30.18 in 10.0 mi North - - N/A   Clear
11:15 PM 66.7 °F 64.4 °F 92% 30.18 in 10.0 mi South 15.0 mph - N/A   Clear
11:35 PM 66.4 °F 64.4 °F 93% 30.18 in 10.0 mi South 12.7 mph - N/A   Clear
11:55 PM 66.0 °F 63.9 °F 93% 30.17 in 10.0 mi South 12.7 mph - N/A   Clear